createdAt,value
2023-04-02T00:00:48.569Z,96.56
2023-04-02T00:01:48.708Z,96.60
2023-04-02T00:02:48.735Z,96.61
2023-04-02T00:03:48.906Z,96.59
2023-04-02T00:04:48.907Z,96.52
2023-04-02T00:05:49.034Z,96.47
2023-04-02T00:06:49.187Z,96.49
2023-04-02T00:07:49.241Z,96.48
2023-04-02T00:08:49.398Z,96.54
2023-04-02T00:09:49.486Z,96.55
2023-04-02T00:10:49.594Z,96.60
2023-04-02T00:11:49.707Z,96.59
2023-04-02T00:12:49.863Z,96.52
2023-04-02T00:13:49.964Z,96.51
2023-04-02T00:14:50.264Z,96.57
2023-04-02T00:15:50.205Z,96.62
2023-04-02T00:16:50.313Z,96.55
2023-04-02T00:17:50.427Z,96.61
2023-04-02T00:18:50.515Z,96.64
2023-04-02T00:19:50.812Z,96.59
2023-04-02T00:20:50.745Z,96.61
2023-04-02T00:21:50.939Z,96.46
2023-04-02T00:22:50.974Z,96.40
2023-04-02T00:23:51.080Z,96.50
2023-04-02T00:24:51.311Z,96.42
2023-04-02T00:25:51.457Z,96.41
2023-04-02T00:26:51.429Z,96.47
2023-04-02T00:27:51.602Z,96.53
2023-04-02T00:28:51.680Z,96.61
2023-04-02T00:29:51.810Z,96.64
2023-04-02T00:30:51.914Z,96.64
2023-04-02T00:31:52.009Z,96.65
2023-04-02T00:32:52.418Z,96.65
2023-04-02T00:33:52.258Z,96.64
2023-04-02T00:34:52.413Z,96.64
2023-04-02T00:35:52.518Z,96.51
2023-04-02T00:36:52.586Z,96.49
2023-04-02T00:37:52.716Z,96.52
2023-04-02T00:38:52.774Z,96.44
2023-04-02T00:39:52.899Z,96.49
2023-04-02T00:40:52.997Z,96.55
2023-04-02T00:41:53.813Z,96.51
2023-04-02T00:42:53.262Z,96.59
2023-04-02T00:43:53.374Z,96.61
2023-04-02T00:44:53.544Z,96.61
2023-04-02T00:45:53.612Z,96.58
2023-04-02T00:46:53.701Z,96.49
2023-04-02T00:47:53.839Z,96.50
2023-04-02T00:48:54.015Z,96.49
2023-04-02T00:49:54.040Z,96.54
2023-04-02T00:50:54.362Z,96.51
2023-04-02T00:51:54.295Z,96.53
2023-04-02T00:52:54.454Z,96.44
2023-04-02T00:53:54.462Z,96.43
2023-04-02T00:54:54.580Z,96.48
2023-04-02T00:55:54.765Z,96.52
2023-04-02T00:56:54.864Z,96.52
2023-04-02T00:57:54.916Z,96.55
2023-04-02T00:58:55.050Z,96.55
2023-04-02T00:59:55.173Z,96.47
2023-04-02T01:00:55.388Z,96.52
2023-04-02T01:01:55.401Z,96.55
2023-04-02T01:02:55.543Z,96.49
2023-04-02T01:03:55.692Z,96.53
2023-04-02T01:04:55.723Z,96.55
2023-04-02T01:05:55.866Z,96.52
2023-04-02T01:06:55.920Z,96.57
2023-04-02T01:07:56.039Z,96.59
2023-04-02T01:08:56.135Z,96.61
2023-04-02T01:09:56.292Z,96.55
2023-04-02T01:10:56.526Z,96.61
2023-04-02T01:11:56.509Z,96.60
2023-04-02T01:12:56.608Z,96.51
2023-04-02T01:13:56.739Z,96.56
2023-04-02T01:14:56.846Z,96.63
2023-04-02T01:15:57.024Z,96.67
2023-04-02T01:16:57.255Z,96.65
2023-04-02T01:17:57.237Z,96.68
2023-04-02T01:18:57.344Z,96.65
2023-04-02T01:19:57.394Z,96.64
2023-04-02T01:20:57.518Z,96.63
2023-04-02T01:21:57.723Z,96.61
2023-04-02T01:22:57.744Z,96.59
2023-04-02T01:23:57.873Z,96.37
2023-04-02T01:24:57.956Z,96.37
2023-04-02T01:25:58.095Z,96.41
2023-04-02T01:26:58.211Z,96.46
2023-04-02T01:27:58.395Z,96.48
2023-04-02T01:28:58.492Z,96.55
2023-04-02T01:29:58.592Z,96.55
2023-04-02T01:30:58.710Z,96.55
2023-04-02T01:31:58.824Z,96.52
2023-04-02T01:32:59.001Z,96.54
2023-04-02T01:33:59.010Z,96.51
2023-04-02T01:34:59.159Z,96.52
2023-04-02T01:35:59.318Z,96.50
2023-04-02T01:36:59.383Z,96.51
2023-04-02T01:37:59.463Z,96.52
2023-04-02T01:38:59.575Z,96.57
2023-04-02T01:39:59.728Z,96.63
2023-04-02T01:40:59.854Z,96.66
2023-04-02T01:42:00.011Z,96.67
2023-04-02T01:43:00.047Z,96.65
2023-04-02T01:44:00.258Z,96.66
2023-04-02T01:45:00.295Z,96.66
2023-04-02T01:46:00.371Z,96.66
2023-04-02T01:47:00.466Z,96.65
2023-04-02T01:48:00.605Z,96.63
2023-04-02T01:49:00.700Z,96.60
2023-04-02T01:50:00.828Z,96.63
2023-04-02T01:51:00.982Z,96.56
2023-04-02T01:52:01.039Z,96.59
2023-04-02T01:53:01.189Z,96.57
2023-04-02T01:54:01.263Z,96.60
2023-04-02T01:55:01.385Z,96.61
2023-04-02T01:56:01.527Z,96.62
2023-04-02T01:57:01.621Z,96.60
2023-04-02T01:58:01.735Z,96.51
2023-04-02T01:59:01.834Z,96.33
2023-04-02T02:00:01.982Z,96.38
2023-04-02T02:01:02.099Z,96.46
2023-04-02T02:02:02.330Z,96.53
2023-04-02T02:03:02.325Z,96.54
2023-04-02T02:04:02.390Z,96.49
2023-04-02T02:05:02.514Z,96.48
2023-04-02T02:06:02.588Z,96.43
2023-04-02T02:07:02.728Z,96.45
2023-04-02T02:08:02.894Z,96.45
2023-04-02T02:09:02.953Z,96.50
2023-04-02T02:10:03.079Z,96.45
2023-04-02T02:11:03.217Z,96.47
2023-04-02T02:12:03.363Z,96.50
2023-04-02T02:13:03.392Z,96.47
2023-04-02T02:14:03.530Z,96.52
2023-04-02T02:15:03.644Z,96.49
2023-04-02T02:16:03.833Z,96.46
2023-04-02T02:17:03.894Z,96.45
2023-04-02T02:18:04.604Z,96.46
2023-04-02T02:19:04.135Z,96.46
2023-04-02T02:20:04.302Z,96.42
2023-04-02T02:21:04.392Z,96.43
2023-04-02T02:22:04.636Z,96.49
2023-04-02T02:23:04.594Z,96.47
2023-04-02T02:24:04.739Z,96.48
2023-04-02T02:25:04.876Z,96.46
2023-04-02T02:26:04.974Z,96.45
2023-04-02T02:27:05.102Z,96.38
2023-04-02T02:28:05.798Z,96.49
2023-04-02T02:29:05.275Z,96.48
2023-04-02T02:30:05.435Z,96.50
2023-04-02T02:31:05.519Z,96.57
2023-04-02T02:32:05.779Z,96.55
2023-04-02T02:33:05.780Z,96.50
2023-04-02T02:34:05.863Z,96.57
2023-04-02T02:35:06.095Z,96.60
2023-04-02T02:36:06.146Z,96.60
2023-04-02T02:37:06.268Z,96.61
2023-04-02T02:38:06.322Z,96.51
2023-04-02T02:39:06.482Z,96.42
2023-04-02T02:40:06.558Z,96.47
2023-04-02T02:41:06.660Z,96.43
2023-04-02T02:42:06.837Z,96.47
2023-04-02T02:43:06.909Z,96.46
2023-04-02T02:44:07.044Z,96.52
2023-04-02T02:45:07.074Z,96.57
2023-04-02T02:46:07.247Z,96.51
2023-04-02T02:47:07.324Z,96.46
2023-04-02T02:48:07.551Z,96.50
2023-04-02T02:49:07.615Z,96.45
2023-04-02T02:50:07.668Z,96.37
2023-04-02T02:51:07.758Z,96.43
2023-04-02T02:52:07.891Z,96.41
2023-04-02T02:53:08.172Z,96.43
2023-04-02T02:54:08.154Z,96.43
2023-04-02T02:55:08.402Z,96.42
2023-04-02T02:56:08.341Z,96.41
2023-04-02T02:57:08.509Z,96.40
2023-04-02T02:58:09.088Z,96.36
2023-04-02T02:59:08.736Z,96.31
2023-04-02T03:00:08.885Z,96.28
2023-04-02T03:01:08.942Z,96.32
2023-04-02T03:02:09.180Z,96.36
2023-04-02T03:03:09.209Z,96.45
2023-04-02T03:04:09.373Z,96.46
2023-04-02T03:05:09.438Z,96.45
2023-04-02T03:06:09.530Z,96.49
2023-04-02T03:07:09.584Z,96.50
2023-04-02T03:08:09.685Z,96.47
2023-04-02T03:09:09.782Z,96.50
2023-04-02T03:10:09.927Z,96.48
2023-04-02T03:11:10.005Z,96.52
2023-04-02T03:12:10.202Z,96.57
2023-04-02T03:13:10.268Z,96.51
2023-04-02T03:14:10.351Z,96.47
2023-04-02T03:15:10.987Z,96.47
2023-04-02T03:16:10.752Z,96.47
2023-04-02T03:17:10.805Z,96.45
2023-04-02T03:18:10.798Z,96.38
2023-04-02T03:19:10.959Z,96.41
2023-04-02T03:20:11.352Z,96.41
2023-04-02T03:21:11.180Z,96.23
2023-04-02T03:22:13.892Z,96.21
2023-04-02T03:23:11.418Z,96.18
2023-04-02T03:24:11.551Z,96.11
2023-04-02T03:25:11.635Z,96.03
2023-04-02T03:26:11.862Z,95.99
2023-04-02T03:27:11.884Z,96.03
2023-04-02T03:28:11.970Z,96.15
2023-04-02T03:29:12.183Z,96.18
2023-04-02T03:30:12.273Z,96.21
2023-04-02T03:31:12.431Z,96.24
2023-04-02T03:32:12.449Z,96.30
2023-04-02T03:33:12.561Z,96.33
2023-04-02T03:34:12.677Z,96.32
2023-04-02T03:35:12.780Z,96.32
2023-04-02T03:36:13.044Z,96.35
2023-04-02T03:37:13.126Z,96.35
2023-04-02T03:38:13.184Z,96.39
2023-04-02T03:39:13.307Z,96.45
2023-04-02T03:40:13.448Z,96.47
2023-04-02T03:41:13.506Z,96.47
2023-04-02T03:42:13.663Z,96.41
2023-04-02T03:43:13.789Z,96.38
2023-04-02T03:44:13.858Z,96.38
2023-04-02T03:45:13.942Z,96.41
2023-04-02T03:46:14.095Z,96.45
2023-04-02T03:47:14.183Z,96.45
2023-04-02T03:48:14.277Z,96.44
2023-04-02T03:49:14.424Z,96.40
2023-04-02T03:50:14.554Z,96.40
2023-04-02T03:51:14.646Z,96.46
2023-04-02T03:52:14.804Z,96.49
2023-04-02T03:53:14.887Z,96.55
2023-04-02T03:54:14.968Z,96.52
2023-04-02T03:55:15.068Z,96.51
2023-04-02T03:56:15.202Z,96.48
2023-04-02T03:57:15.414Z,96.51
2023-04-02T03:58:15.479Z,96.44
2023-04-02T03:59:15.510Z,96.40
2023-04-02T04:00:15.696Z,96.42
2023-04-02T04:01:15.756Z,96.45
2023-04-02T04:02:15.922Z,96.21
2023-04-02T04:03:16.012Z,96.18
2023-04-02T04:04:16.149Z,96.22
2023-04-02T04:05:16.178Z,96.28
2023-04-02T04:06:16.360Z,96.23
2023-04-02T04:07:16.469Z,96.23
2023-04-02T04:08:16.620Z,96.21
2023-04-02T04:09:16.658Z,96.18
2023-04-02T04:10:16.770Z,96.21
2023-04-02T04:11:17.081Z,96.23
2023-04-02T04:12:17.028Z,96.27
2023-04-02T04:13:17.137Z,96.23
2023-04-02T04:14:17.240Z,96.27
2023-04-02T04:15:17.390Z,96.21
2023-04-02T04:16:17.512Z,96.15
2023-04-02T04:17:17.576Z,96.16
2023-04-02T04:18:17.739Z,96.13
2023-04-02T04:19:17.839Z,96.17
2023-04-02T04:20:17.980Z,96.30
2023-04-02T04:21:18.045Z,96.36
2023-04-02T04:22:18.222Z,96.34
2023-04-02T04:23:18.258Z,96.26
2023-04-02T04:24:18.326Z,96.18
2023-04-02T04:25:18.444Z,96.15
2023-04-02T04:26:18.587Z,96.10
2023-04-02T04:27:18.684Z,96.13
2023-04-02T04:28:18.830Z,96.16
2023-04-02T04:29:18.938Z,96.16
2023-04-02T04:30:19.012Z,96.21
2023-04-02T04:31:19.171Z,96.19
2023-04-02T04:32:19.322Z,96.16
2023-04-02T04:33:19.371Z,96.26
2023-04-02T04:34:19.510Z,96.23
2023-04-02T04:35:19.640Z,96.21
2023-04-02T04:36:19.812Z,96.20
2023-04-02T04:37:19.839Z,96.24
2023-04-02T04:38:19.960Z,96.26
2023-04-02T04:39:20.060Z,96.29
2023-04-02T04:40:20.203Z,96.33
2023-04-02T04:41:20.250Z,96.36
2023-04-02T04:42:20.435Z,96.41
2023-04-02T04:43:20.568Z,96.45
2023-04-02T04:44:20.585Z,96.22
2023-04-02T04:45:20.695Z,96.18
2023-04-02T04:46:20.884Z,96.27
2023-04-02T04:47:20.957Z,96.34
2023-04-02T04:48:21.061Z,96.24
2023-04-02T04:49:21.159Z,96.29
2023-04-02T04:50:21.294Z,96.33
2023-04-02T04:51:21.402Z,96.37
2023-04-02T04:52:21.507Z,96.40
2023-04-02T04:53:21.622Z,96.35
2023-04-02T04:54:21.745Z,96.32
2023-04-02T04:55:21.819Z,96.29
2023-04-02T04:56:22.044Z,96.29
2023-04-02T04:57:22.164Z,96.31
2023-04-02T04:58:22.191Z,96.27
2023-04-02T04:59:22.439Z,96.31
2023-04-02T05:00:22.377Z,96.31
2023-04-02T05:01:22.498Z,96.30
2023-04-02T05:02:22.768Z,96.19
2023-04-02T05:03:22.714Z,96.17
2023-04-02T05:04:22.940Z,96.23
2023-04-02T05:05:22.924Z,96.28
2023-04-02T05:06:23.074Z,96.20
2023-04-02T05:07:23.169Z,96.24
2023-04-02T05:08:23.271Z,96.28
2023-04-02T05:09:23.442Z,96.35
2023-04-02T05:10:23.480Z,96.25
2023-04-02T05:11:23.692Z,96.19
2023-04-02T05:12:23.741Z,96.27
2023-04-02T05:13:23.853Z,96.28
2023-04-02T05:14:24.011Z,96.33
2023-04-02T05:15:24.048Z,96.32
2023-04-02T05:16:24.238Z,96.26
2023-04-02T05:17:24.292Z,96.36
2023-04-02T05:18:24.407Z,96.38
2023-04-02T05:19:24.582Z,96.43
2023-04-02T05:20:24.606Z,96.38
2023-04-02T05:21:24.761Z,96.29
2023-04-02T05:22:24.911Z,96.11
2023-04-02T05:23:24.995Z,96.21
2023-04-02T05:24:25.099Z,96.16
2023-04-02T05:25:25.388Z,96.16
2023-04-02T05:26:25.455Z,96.18
2023-04-02T05:27:25.443Z,96.16
2023-04-02T05:28:25.550Z,96.16
2023-04-02T05:29:25.651Z,96.15
2023-04-02T05:30:25.796Z,96.10
2023-04-02T05:31:26.001Z,96.01
2023-04-02T05:32:25.999Z,96.06
2023-04-02T05:33:26.152Z,96.13
2023-04-02T05:34:26.181Z,96.10
2023-04-02T05:35:26.311Z,96.11
2023-04-02T05:36:26.534Z,96.04
2023-04-02T05:37:26.789Z,96.10
2023-04-02T05:38:26.650Z,96.13
2023-04-02T05:39:26.794Z,96.12
2023-04-02T05:40:26.887Z,96.14
2023-04-02T05:41:27.067Z,96.20
2023-04-02T05:42:27.177Z,96.24
2023-04-02T05:43:27.506Z,96.19
2023-04-02T05:44:27.361Z,96.20
2023-04-02T05:45:27.459Z,96.21
2023-04-02T05:46:27.643Z,96.20
2023-04-02T05:47:27.748Z,96.15
2023-04-02T05:48:27.801Z,96.20
2023-04-02T05:49:27.920Z,96.19
2023-04-02T05:50:28.084Z,96.17
2023-04-02T05:51:28.190Z,96.07
2023-04-02T05:52:28.269Z,96.08
2023-04-02T05:53:28.385Z,96.15
2023-04-02T05:54:28.519Z,96.17
2023-04-02T05:55:28.579Z,96.16
2023-04-02T05:56:28.694Z,96.12
2023-04-02T05:57:42.826Z,96.16
2023-04-02T05:58:36.089Z,96.08
2023-04-02T05:59:30.112Z,96.09
2023-04-02T06:00:29.175Z,96.14
2023-04-02T06:01:29.368Z,96.10
2023-04-02T06:02:29.618Z,96.14
2023-04-02T06:03:29.578Z,96.22
2023-04-02T06:04:29.653Z,96.25
2023-04-02T06:05:29.763Z,96.20
2023-04-02T06:06:29.852Z,96.20
2023-04-02T06:07:29.988Z,96.23
2023-04-02T06:08:30.176Z,96.23
2023-04-02T06:09:30.241Z,96.03
2023-04-02T06:10:30.393Z,95.91
2023-04-02T06:11:30.531Z,95.96
2023-04-02T06:12:30.675Z,95.96
2023-04-02T06:13:30.716Z,96.04
2023-04-02T06:14:30.837Z,96.00
2023-04-02T06:15:31.022Z,95.97
2023-04-02T06:16:31.141Z,96.06
2023-04-02T06:17:31.232Z,96.09
2023-04-02T06:18:31.360Z,96.10
2023-04-02T06:19:31.524Z,96.18
2023-04-02T06:20:31.581Z,96.19
2023-04-02T06:21:31.790Z,96.15
2023-04-02T06:22:32.093Z,96.16
2023-04-02T06:23:31.966Z,96.15
2023-04-02T06:24:32.011Z,96.15
2023-04-02T06:25:32.170Z,96.22
2023-04-02T06:26:32.275Z,96.29
2023-04-02T06:27:32.491Z,96.29
2023-04-02T06:28:32.581Z,96.28
2023-04-02T06:29:32.738Z,96.22
2023-04-02T06:30:32.934Z,96.18
2023-04-02T06:31:32.988Z,96.17
2023-04-02T06:32:33.171Z,96.08
2023-04-02T06:33:33.625Z,96.16
2023-04-02T06:34:33.430Z,96.15
2023-04-02T06:35:33.845Z,96.22
2023-04-02T06:36:33.683Z,96.19
2023-04-02T06:37:33.796Z,96.22
2023-04-02T06:38:33.932Z,96.19
2023-04-02T06:39:34.051Z,96.20
2023-04-02T06:40:34.160Z,96.26
2023-04-02T06:41:34.544Z,96.28
2023-04-02T06:42:34.463Z,96.25
2023-04-02T06:43:34.558Z,96.24
2023-04-02T06:44:34.717Z,96.36
2023-04-02T06:45:35.324Z,96.39
2023-04-02T06:46:35.038Z,96.31
2023-04-02T06:47:35.128Z,96.23
2023-04-02T06:48:35.208Z,96.14
2023-04-02T06:49:35.294Z,96.24
2023-04-02T06:50:35.432Z,96.22
2023-04-02T06:51:35.594Z,96.21
2023-04-02T06:52:35.635Z,96.23
2023-04-02T06:53:35.787Z,96.25
2023-04-02T06:54:35.920Z,96.29
2023-04-02T06:55:36.276Z,96.24
2023-04-02T06:56:36.211Z,96.18
2023-04-02T06:57:36.409Z,96.17
2023-04-02T06:58:36.459Z,96.16
2023-04-02T06:59:36.627Z,96.15
2023-04-02T07:00:36.738Z,96.19
2023-04-02T07:01:36.995Z,96.20
2023-04-02T07:02:37.156Z,96.21
2023-04-02T07:03:37.176Z,96.29
2023-04-02T07:04:37.315Z,96.22
2023-04-02T07:05:37.558Z,96.19
2023-04-02T07:06:37.474Z,96.11
2023-04-02T07:07:37.582Z,96.01
2023-04-02T07:08:37.733Z,95.96
2023-04-02T07:09:37.822Z,96.03
2023-04-02T07:10:37.934Z,96.01
2023-04-02T07:11:38.102Z,95.90
2023-04-02T07:12:38.258Z,95.94
2023-04-02T07:13:38.402Z,96.00
2023-04-02T07:14:38.487Z,96.02
2023-04-02T07:15:38.778Z,96.07
2023-04-02T07:16:38.745Z,96.16
2023-04-02T07:17:38.943Z,96.16
2023-04-02T07:18:39.065Z,96.19
2023-04-02T07:19:39.217Z,96.20
2023-04-02T07:20:39.360Z,96.27
2023-04-02T07:21:39.485Z,96.11
2023-04-02T07:22:39.544Z,95.93
2023-04-02T07:23:39.786Z,95.97
2023-04-02T07:24:39.808Z,96.10
2023-04-02T07:25:39.924Z,96.20
2023-04-02T07:26:40.082Z,96.14
2023-04-02T07:27:40.220Z,96.15
2023-04-02T07:28:40.497Z,96.17
2023-04-02T07:29:40.433Z,96.18
2023-04-02T07:30:40.734Z,96.19
2023-04-02T07:31:40.766Z,96.10
2023-04-02T07:32:40.854Z,95.98
2023-04-02T07:33:42.230Z,95.93
2023-04-02T07:34:41.124Z,96.04
2023-04-02T07:35:41.293Z,96.10
2023-04-02T07:36:41.440Z,96.10
2023-04-02T07:37:41.537Z,96.10
2023-04-02T07:38:41.709Z,96.17
2023-04-02T07:39:41.869Z,96.24
2023-04-02T07:40:42.034Z,96.29
2023-04-02T07:41:42.085Z,96.29
2023-04-02T07:42:42.175Z,96.21
2023-04-02T07:43:42.321Z,96.01
2023-04-02T07:44:42.472Z,96.09
2023-04-02T07:45:42.629Z,96.07
2023-04-02T07:46:42.801Z,96.08
2023-04-02T07:47:42.926Z,96.20
2023-04-02T07:48:42.989Z,96.28
2023-04-02T07:49:43.115Z,96.24
2023-04-02T07:50:43.317Z,96.27
2023-04-02T07:51:43.380Z,96.28
2023-04-02T07:52:43.509Z,96.21
2023-04-02T07:53:43.624Z,96.11
2023-04-02T07:54:43.776Z,96.08
2023-04-02T07:55:43.872Z,95.95
2023-04-02T07:56:44.036Z,95.90
2023-04-02T07:57:46.388Z,95.90
2023-04-02T07:58:44.236Z,95.90
2023-04-02T07:59:44.417Z,95.95
2023-04-02T08:00:44.534Z,95.92
2023-04-02T08:01:44.756Z,96.00
2023-04-02T08:02:44.779Z,96.10
2023-04-02T08:03:44.980Z,96.19
2023-04-02T08:04:45.164Z,96.14
2023-04-02T08:05:45.163Z,96.10
2023-04-02T08:06:45.359Z,95.97
2023-04-02T08:07:45.492Z,95.95
2023-04-02T08:08:45.590Z,95.98
2023-04-02T08:09:45.779Z,96.10
2023-04-02T08:10:45.793Z,96.26
2023-04-02T08:11:46.017Z,96.34
2023-04-02T08:12:46.144Z,96.34
2023-04-02T08:13:46.179Z,96.39
2023-04-02T08:14:46.327Z,96.42
2023-04-02T08:15:46.506Z,96.36
2023-04-02T08:16:46.754Z,96.13
2023-04-02T08:17:46.824Z,96.14
2023-04-02T08:18:46.909Z,96.23
2023-04-02T08:19:54.687Z,96.18
2023-04-02T08:20:48.340Z,96.09
2023-04-02T08:21:47.424Z,96.08
2023-04-02T08:22:47.465Z,96.16
2023-04-02T08:23:47.602Z,96.14
2023-04-02T08:24:47.640Z,96.17
2023-04-02T08:25:47.776Z,96.24
2023-04-02T08:26:47.965Z,96.23
2023-04-02T08:27:48.208Z,96.26
2023-04-02T08:28:48.195Z,96.09
2023-04-02T08:29:48.422Z,96.11
2023-04-02T08:30:48.638Z,96.15
2023-04-02T08:31:48.717Z,96.15
2023-04-02T08:32:48.928Z,96.16
2023-04-02T08:33:48.928Z,96.18
2023-04-02T08:34:49.084Z,96.17
2023-04-02T08:35:49.161Z,96.23
2023-04-02T08:36:49.233Z,96.09
2023-04-02T08:37:49.411Z,96.06
2023-04-02T08:38:49.478Z,96.11
2023-04-02T08:39:49.611Z,96.15
2023-04-02T08:40:49.902Z,96.01
2023-04-02T08:41:49.822Z,96.08
2023-04-02T08:42:50.114Z,96.05
2023-04-02T08:43:50.112Z,95.85
2023-04-02T08:44:50.222Z,95.80
2023-04-02T08:45:50.419Z,95.73
2023-04-02T08:46:50.584Z,95.86
2023-04-02T08:47:50.655Z,95.74
2023-04-02T08:48:50.795Z,95.66
2023-04-02T08:49:51.135Z,95.69
2023-04-02T08:50:50.980Z,95.81
2023-04-02T08:51:51.145Z,95.87
2023-04-02T08:52:51.226Z,95.92
2023-04-02T08:53:51.367Z,95.93
2023-04-02T08:54:51.530Z,95.84
2023-04-02T08:55:51.662Z,95.88
2023-04-02T08:56:51.974Z,95.86
2023-04-02T08:57:51.931Z,95.78
2023-04-02T08:58:52.180Z,95.86
2023-04-02T08:59:52.206Z,95.89
2023-04-02T09:00:52.388Z,96.00
2023-04-02T09:01:52.591Z,95.97
2023-04-02T09:02:52.641Z,95.96
2023-04-02T09:03:52.761Z,95.98
2023-04-02T09:04:53.011Z,95.96
2023-04-02T09:05:53.016Z,95.90
2023-04-02T09:06:53.120Z,95.82
2023-04-02T09:07:53.313Z,95.81
2023-04-02T09:08:53.410Z,95.76
2023-04-02T09:09:53.513Z,95.83
2023-04-02T09:10:53.662Z,95.73
2023-04-02T09:11:53.877Z,95.82
2023-04-02T09:12:53.992Z,95.86
2023-04-02T09:13:54.126Z,95.89
2023-04-02T09:14:54.250Z,96.03
2023-04-02T09:15:54.345Z,96.08
2023-04-02T09:16:54.487Z,96.14
2023-04-02T09:17:55.761Z,96.00
2023-04-02T09:18:54.799Z,95.83
2023-04-02T09:19:54.901Z,95.76
2023-04-02T09:20:55.029Z,95.61
2023-04-02T09:21:55.116Z,95.44
2023-04-02T09:22:55.255Z,95.54
2023-04-02T09:23:55.531Z,95.36
2023-04-02T09:24:55.673Z,95.38
2023-04-02T09:26:04.242Z,95.56
2023-04-02T09:26:56.833Z,95.60
2023-04-02T09:27:55.944Z,95.53
2023-04-02T09:28:56.117Z,95.25
2023-04-02T09:29:56.402Z,95.35
2023-04-02T09:30:56.340Z,95.49
2023-04-02T09:31:56.651Z,95.47
2023-04-02T09:32:56.612Z,95.24
2023-04-02T09:33:56.740Z,95.25
2023-04-02T09:34:57.061Z,95.39
2023-04-02T09:35:57.132Z,95.16
2023-04-02T09:36:57.188Z,95.10
2023-04-02T09:37:57.342Z,95.09
2023-04-02T09:38:57.413Z,95.09
2023-04-02T09:39:57.609Z,94.98
2023-04-02T09:40:57.695Z,95.09
2023-04-02T09:42:05.387Z,95.27
2023-04-02T09:42:59.056Z,95.13
2023-04-02T09:43:58.185Z,95.05
2023-04-02T09:44:58.250Z,95.12
2023-04-02T09:45:58.409Z,95.21
2023-04-02T09:46:58.571Z,95.38
2023-04-02T09:47:58.642Z,95.12
2023-04-02T09:48:58.758Z,95.05
2023-04-02T09:49:58.955Z,95.08
2023-04-02T09:50:59.024Z,95.17
2023-04-02T09:51:59.180Z,94.94
2023-04-02T09:52:59.242Z,95.30
2023-04-02T09:53:59.428Z,95.55
2023-04-02T09:54:59.577Z,95.43
2023-04-02T09:55:59.659Z,95.52
2023-04-02T09:56:59.840Z,95.57
2023-04-02T09:58:01.931Z,95.49
2023-04-02T09:59:00.110Z,95.52
2023-04-02T10:00:00.288Z,95.64
2023-04-02T10:01:00.388Z,95.60
2023-04-02T10:02:00.518Z,95.72
2023-04-02T10:03:00.670Z,95.76
2023-04-02T10:04:00.862Z,95.82
2023-04-02T10:05:00.871Z,95.67
2023-04-02T10:06:00.968Z,95.51
2023-04-02T10:07:01.085Z,95.44
2023-04-02T10:08:01.299Z,95.36
2023-04-02T10:09:01.324Z,95.35
2023-04-02T10:10:01.437Z,95.24
2023-04-02T10:11:01.554Z,95.05
2023-04-02T10:12:01.674Z,94.90
2023-04-02T10:13:01.880Z,95.00
2023-04-02T10:14:01.983Z,95.16
2023-04-02T10:15:02.125Z,95.13
2023-04-02T10:16:02.233Z,94.99
2023-04-02T10:17:02.371Z,95.10
2023-04-02T10:18:02.652Z,95.09
2023-04-02T10:19:02.658Z,95.13
2023-04-02T10:20:02.823Z,95.05
2023-04-02T10:21:02.871Z,95.11
2023-04-02T10:22:03.015Z,95.30
2023-04-02T10:23:04.901Z,95.09
2023-04-02T10:24:03.355Z,95.01
2023-04-02T10:25:03.475Z,95.13
2023-04-02T10:26:03.611Z,94.51
2023-04-02T10:27:03.853Z,94.49
2023-04-02T10:28:03.833Z,94.73
2023-04-02T10:29:06.752Z,94.76
2023-04-02T10:30:04.140Z,94.63
2023-04-02T10:31:04.355Z,94.66
2023-04-02T10:32:04.435Z,94.76
2023-04-02T10:33:04.525Z,94.68
2023-04-02T10:34:04.781Z,94.55
2023-04-02T10:35:04.819Z,94.01
2023-04-02T10:36:04.938Z,94.18
2023-04-02T10:37:05.104Z,94.37
2023-04-02T10:38:05.206Z,94.34
2023-04-02T10:39:05.291Z,94.06
2023-04-02T10:40:05.464Z,94.22
2023-04-02T10:41:05.608Z,94.18
2023-04-02T10:42:05.738Z,93.95
2023-04-02T10:43:05.818Z,93.95
2023-04-02T10:44:16.768Z,93.98
2023-04-02T10:45:07.062Z,93.63
2023-04-02T10:46:06.324Z,93.73
2023-04-02T10:47:06.327Z,93.96
2023-04-02T10:48:06.555Z,94.10
2023-04-02T10:49:06.682Z,94.15
2023-04-02T10:50:06.831Z,93.85
2023-04-02T10:51:06.889Z,93.80
2023-04-02T10:52:07.048Z,93.43
2023-04-02T10:53:07.159Z,93.38
2023-04-02T10:54:07.187Z,93.44
2023-04-02T10:55:07.303Z,93.33
2023-04-02T10:56:07.492Z,93.11
2023-04-02T10:57:07.664Z,93.12
2023-04-02T10:58:07.739Z,93.47
2023-04-02T10:59:07.863Z,93.25
2023-04-02T11:00:07.984Z,93.23
2023-04-02T11:01:08.260Z,93.09
2023-04-02T11:02:08.251Z,92.86
2023-04-02T11:03:08.421Z,92.66
2023-04-02T11:04:08.499Z,92.73
2023-04-02T11:05:08.601Z,92.66
2023-04-02T11:06:09.727Z,91.90
2023-04-02T11:07:14.331Z,92.42
2023-04-02T11:08:10.144Z,92.44
2023-04-02T11:09:09.131Z,92.27
2023-04-02T11:10:09.266Z,92.15
2023-04-02T11:11:09.464Z,92.26
2023-04-02T11:12:09.507Z,91.78
2023-04-02T11:13:09.690Z,92.37
2023-04-02T11:14:09.799Z,92.10
2023-04-02T11:15:09.895Z,91.78
2023-04-02T11:16:10.071Z,91.77
2023-04-02T11:17:10.143Z,92.29
2023-04-02T11:18:10.260Z,92.25
2023-04-02T11:19:10.467Z,92.47
2023-04-02T11:20:10.588Z,91.89
2023-04-02T11:21:10.666Z,92.21
2023-04-02T11:22:10.895Z,92.01
2023-04-02T11:23:10.958Z,92.24
2023-04-02T11:24:11.049Z,91.52
2023-04-02T11:25:11.155Z,90.81
2023-04-02T11:26:11.293Z,90.70
2023-04-02T11:27:11.477Z,90.50
2023-04-02T11:28:11.540Z,90.62
2023-04-02T11:29:11.669Z,90.69
2023-04-02T11:30:12.005Z,90.46
2023-04-02T11:31:12.015Z,90.81
2023-04-02T11:32:12.072Z,91.17
2023-04-02T11:33:12.195Z,90.68
2023-04-02T11:34:12.471Z,90.79
2023-04-02T11:35:12.500Z,91.16
2023-04-02T11:36:12.740Z,91.01
2023-04-02T11:37:12.737Z,90.50
2023-04-02T11:38:12.973Z,90.41
2023-04-02T11:39:17.550Z,89.73
2023-04-02T11:40:13.284Z,89.63
2023-04-02T11:41:13.325Z,90.00
2023-04-02T11:42:13.564Z,90.08
2023-04-02T11:43:13.564Z,90.12
2023-04-02T11:44:13.676Z,90.74
2023-04-02T11:45:13.779Z,90.70
2023-04-02T11:46:13.973Z,90.45
2023-04-02T11:47:14.149Z,90.09
2023-04-02T11:48:14.215Z,90.10
2023-04-02T11:49:14.321Z,89.67
2023-04-02T11:50:14.486Z,89.34
2023-04-02T11:51:14.928Z,89.80
2023-04-02T11:52:14.745Z,89.45
2023-04-02T11:53:14.839Z,89.58
2023-04-02T11:54:15.199Z,89.70
2023-04-02T11:55:15.856Z,89.30
2023-04-02T11:56:15.271Z,89.05
2023-04-02T11:57:15.369Z,89.19
2023-04-02T11:58:15.577Z,89.06
2023-04-02T11:59:15.619Z,88.78
2023-04-02T12:00:17.899Z,89.08
2023-04-02T12:01:15.896Z,89.26
2023-04-02T12:02:16.041Z,89.66
2023-04-02T12:03:16.247Z,89.43
2023-04-02T12:04:16.298Z,89.51
2023-04-02T12:05:16.648Z,89.44
2023-04-02T12:06:17.494Z,89.46
2023-04-02T12:07:16.697Z,89.53
2023-04-02T12:08:16.969Z,89.69
2023-04-02T12:09:16.986Z,89.40
2023-04-02T12:10:17.100Z,89.42
2023-04-02T12:11:17.275Z,88.41
2023-04-02T12:12:17.438Z,88.00
2023-04-02T12:13:17.535Z,87.89
2023-04-02T12:14:17.580Z,88.08
2023-04-02T12:15:17.742Z,87.96
2023-04-02T12:16:17.920Z,87.64
2023-04-02T12:17:18.099Z,88.00
2023-04-02T12:18:18.157Z,88.03
2023-04-02T12:19:18.299Z,88.45
2023-04-02T12:20:18.380Z,87.89
2023-04-02T12:21:18.554Z,87.71
2023-04-02T12:22:18.646Z,87.97
2023-04-02T12:23:18.797Z,87.74
2023-04-02T12:24:18.980Z,88.35
2023-04-02T12:25:19.034Z,87.46
2023-04-02T12:26:19.833Z,87.55
2023-04-02T12:27:19.310Z,86.88
2023-04-02T12:28:19.405Z,87.37
2023-04-02T12:29:19.518Z,87.76
2023-04-02T12:30:19.666Z,87.34
2023-04-02T12:31:19.837Z,86.87
2023-04-02T12:32:19.898Z,87.41
2023-04-02T12:33:20.077Z,87.78
2023-04-02T12:34:20.215Z,86.70
2023-04-02T12:35:20.306Z,86.80
2023-04-02T12:36:20.450Z,86.59
2023-04-02T12:37:20.588Z,86.85
2023-04-02T12:38:20.763Z,86.94
2023-04-02T12:39:20.813Z,85.80
2023-04-02T12:40:20.962Z,86.77
2023-04-02T12:41:21.076Z,86.61
2023-04-02T12:42:21.155Z,85.86
2023-04-02T12:43:21.290Z,86.02
2023-04-02T12:44:21.462Z,85.92
2023-04-02T12:45:21.563Z,85.62
2023-04-02T12:46:21.646Z,86.22
2023-04-02T12:47:21.825Z,86.19
2023-04-02T12:48:21.972Z,86.27
2023-04-02T12:49:22.022Z,86.81
2023-04-02T12:50:22.177Z,86.37
2023-04-02T12:51:22.343Z,86.67
2023-04-02T12:52:22.478Z,86.04
2023-04-02T12:53:22.549Z,85.89
2023-04-02T12:54:22.745Z,86.03